sensor_id;sensor_type;location;lat;lon;timestamp;P1;durP1;ratioP1;P2;durP2;ratioP2
41705;SDS011;27385;51.096;17.190;2022-07-29T00:01:39;9.60;;;1.20;;
41705;SDS011;27385;51.096;17.190;2022-07-29T00:04:12;5.10;;;1.20;;
41705;SDS011;27385;51.096;17.190;2022-07-29T00:06:44;9.50;;;1.20;;
41705;SDS011;27385;51.096;17.190;2022-07-29T00:09:15;8.60;;;1.10;;
41705;SDS011;27385;51.096;17.190;2022-07-29T00:11:47;5.20;;;1.00;;
41705;SDS011;27385;51.096;17.190;2022-07-29T00:14:19;4.10;;;0.90;;
41705;SDS011;27385;51.096;17.190;2022-07-29T00:16:50;7.50;;;1.20;;
41705;SDS011;27385;51.096;17.190;2022-07-29T00:19:22;4.90;;;0.90;;
41705;SDS011;27385;51.096;17.190;2022-07-29T00:21:53;5.50;;;1.20;;
41705;SDS011;27385;51.096;17.190;2022-07-29T00:24:25;7.20;;;1.50;;
41705;SDS011;27385;51.096;17.190;2022-07-29T00:26:56;6.40;;;1.00;;
41705;SDS011;27385;51.096;17.190;2022-07-29T00:29:28;5.90;;;1.10;;
41705;SDS011;27385;51.096;17.190;2022-07-29T00:32:00;5.20;;;1.00;;
41705;SDS011;27385;51.096;17.190;2022-07-29T00:34:32;6.00;;;1.10;;
41705;SDS011;27385;51.096;17.190;2022-07-29T00:37:21;6.20;;;1.10;;
41705;SDS011;27385;51.096;17.190;2022-07-29T00:39:53;4.60;;;1.00;;
41705;SDS011;27385;51.096;17.190;2022-07-29T00:42:25;7.30;;;1.10;;
41705;SDS011;27385;51.096;17.190;2022-07-29T00:44:56;6.20;;;1.30;;
41705;SDS011;27385;51.096;17.190;2022-07-29T00:47:28;5.20;;;1.00;;
41705;SDS011;27385;51.096;17.190;2022-07-29T00:50:00;3.60;;;0.90;;
41705;SDS011;27385;51.096;17.190;2022-07-29T00:52:32;5.50;;;1.00;;
41705;SDS011;27385;51.096;17.190;2022-07-29T00:55:06;4.50;;;1.10;;
41705;SDS011;27385;51.096;17.190;2022-07-29T00:57:39;5.30;;;0.90;;
41705;SDS011;27385;51.096;17.190;2022-07-29T01:00:14;5.40;;;0.90;;
41705;SDS011;27385;51.096;17.190;2022-07-29T01:02:48;5.60;;;1.20;;
41705;SDS011;27385;51.096;17.190;2022-07-29T01:05:20;5.00;;;1.20;;
41705;SDS011;27385;51.096;17.190;2022-07-29T01:07:53;5.40;;;1.10;;
41705;SDS011;27385;51.096;17.190;2022-07-29T01:10:26;7.00;;;1.40;;
41705;SDS011;27385;51.096;17.190;2022-07-29T01:12:59;8.30;;;1.10;;
41705;SDS011;27385;51.096;17.190;2022-07-29T01:15:32;5.50;;;1.00;;
41705;SDS011;27385;51.096;17.190;2022-07-29T01:18:11;5.80;;;1.00;;
41705;SDS011;27385;51.096;17.190;2022-07-29T01:20:59;7.00;;;1.00;;
41705;SDS011;27385;51.096;17.190;2022-07-29T01:27:01;7.00;;;1.00;;
41705;SDS011;27385;51.096;17.190;2022-07-29T01:29:45;5.80;;;1.40;;
41705;SDS011;27385;51.096;17.190;2022-07-29T01:32:24;9.90;;;1.20;;
41705;SDS011;27385;51.096;17.190;2022-07-29T01:35:02;5.60;;;1.00;;
41705;SDS011;27385;51.096;17.190;2022-07-29T01:37:38;5.80;;;1.00;;
41705;SDS011;27385;51.096;17.190;2022-07-29T01:40:18;6.00;;;1.60;;
41705;SDS011;27385;51.096;17.190;2022-07-29T01:42:57;6.00;;;0.90;;
41705;SDS011;27385;51.096;17.190;2022-07-29T01:45:33;8.70;;;1.20;;
41705;SDS011;27385;51.096;17.190;2022-07-29T01:48:11;4.30;;;1.00;;
41705;SDS011;27385;51.096;17.190;2022-07-29T01:50:46;8.30;;;1.10;;
41705;SDS011;27385;51.096;17.190;2022-07-29T01:53:21;6.90;;;1.10;;
41705;SDS011;27385;51.096;17.190;2022-07-29T01:56:00;7.60;;;1.20;;
41705;SDS011;27385;51.096;17.190;2022-07-29T01:58:32;4.30;;;0.90;;
41705;SDS011;27385;51.096;17.190;2022-07-29T02:01:08;6.60;;;0.90;;
41705;SDS011;27385;51.096;17.190;2022-07-29T02:03:41;7.70;;;1.10;;
41705;SDS011;27385;51.096;17.190;2022-07-29T02:06:15;6.40;;;1.10;;
41705;SDS011;27385;51.096;17.190;2022-07-29T02:08:51;7.60;;;1.10;;
41705;SDS011;27385;51.096;17.190;2022-07-29T02:11:25;6.80;;;1.30;;
41705;SDS011;27385;51.096;17.190;2022-07-29T02:13:58;5.10;;;0.90;;
41705;SDS011;27385;51.096;17.190;2022-07-29T02:16:31;8.50;;;1.30;;
41705;SDS011;27385;51.096;17.190;2022-07-29T02:19:05;6.20;;;1.30;;
41705;SDS011;27385;51.096;17.190;2022-07-29T02:21:39;5.50;;;1.00;;
41705;SDS011;27385;51.096;17.190;2022-07-29T02:24:12;8.10;;;1.30;;
41705;SDS011;27385;51.096;17.190;2022-07-29T02:26:46;7.90;;;1.20;;
41705;SDS011;27385;51.096;17.190;2022-07-29T02:29:20;9.30;;;1.20;;
41705;SDS011;27385;51.096;17.190;2022-07-29T02:31:54;6.60;;;1.50;;
41705;SDS011;27385;51.096;17.190;2022-07-29T02:34:30;7.60;;;1.60;;
41705;SDS011;27385;51.096;17.190;2022-07-29T02:37:02;9.40;;;1.20;;
41705;SDS011;27385;51.096;17.190;2022-07-29T02:39:34;8.60;;;1.20;;
41705;SDS011;27385;51.096;17.190;2022-07-29T02:42:09;7.10;;;1.40;;
41705;SDS011;27385;51.096;17.190;2022-07-29T02:44:42;7.70;;;1.50;;
41705;SDS011;27385;51.096;17.190;2022-07-29T02:47:16;5.50;;;1.30;;
41705;SDS011;27385;51.096;17.190;2022-07-29T02:49:55;5.70;;;1.00;;
41705;SDS011;27385;51.096;17.190;2022-07-29T02:52:32;6.00;;;1.30;;
41705;SDS011;27385;51.096;17.190;2022-07-29T02:55:10;5.90;;;1.10;;
41705;SDS011;27385;51.096;17.190;2022-07-29T02:57:49;6.70;;;1.50;;
41705;SDS011;27385;51.096;17.190;2022-07-29T03:00:25;5.60;;;1.00;;
41705;SDS011;27385;51.096;17.190;2022-07-29T03:02:59;7.70;;;1.40;;
41705;SDS011;27385;51.096;17.190;2022-07-29T03:05:33;11.20;;;1.50;;
41705;SDS011;27385;51.096;17.190;2022-07-29T03:08:06;4.90;;;1.20;;
41705;SDS011;27385;51.096;17.190;2022-07-29T03:10:42;7.30;;;1.20;;
41705;SDS011;27385;51.096;17.190;2022-07-29T03:13:15;6.60;;;1.60;;
41705;SDS011;27385;51.096;17.190;2022-07-29T03:15:47;9.00;;;1.30;;
41705;SDS011;27385;51.096;17.190;2022-07-29T03:18:23;7.00;;;1.20;;
41705;SDS011;27385;51.096;17.190;2022-07-29T03:20:55;5.50;;;1.30;;
41705;SDS011;27385;51.096;17.190;2022-07-29T03:23:26;9.20;;;1.30;;
41705;SDS011;27385;51.096;17.190;2022-07-29T03:25:57;11.70;;;1.60;;
41705;SDS011;27385;51.096;17.190;2022-07-29T03:28:29;12.70;;;1.50;;
41705;SDS011;27385;51.096;17.190;2022-07-29T03:31:00;6.30;;;1.20;;
41705;SDS011;27385;51.096;17.190;2022-07-29T03:33:31;8.60;;;1.50;;
41705;SDS011;27385;51.096;17.190;2022-07-29T03:36:03;6.50;;;1.30;;
41705;SDS011;27385;51.096;17.190;2022-07-29T03:38:34;8.30;;;1.40;;
41705;SDS011;27385;51.096;17.190;2022-07-29T03:41:10;7.80;;;1.10;;
41705;SDS011;27385;51.096;17.190;2022-07-29T03:43:43;7.50;;;1.40;;
41705;SDS011;27385;51.096;17.190;2022-07-29T03:46:16;12.10;;;1.90;;
41705;SDS011;27385;51.096;17.190;2022-07-29T03:48:50;5.60;;;1.60;;
41705;SDS011;27385;51.096;17.190;2022-07-29T03:51:27;10.40;;;1.60;;
41705;SDS011;27385;51.096;17.190;2022-07-29T03:53:59;10.20;;;1.60;;
41705;SDS011;27385;51.096;17.190;2022-07-29T03:56:31;7.10;;;1.30;;
41705;SDS011;27385;51.096;17.190;2022-07-29T03:59:06;12.00;;;1.40;;
41705;SDS011;27385;51.096;17.190;2022-07-29T04:01:39;5.10;;;1.40;;
41705;SDS011;27385;51.096;17.190;2022-07-29T04:04:14;8.20;;;1.50;;
41705;SDS011;27385;51.096;17.190;2022-07-29T04:06:46;8.10;;;1.70;;
41705;SDS011;27385;51.096;17.190;2022-07-29T04:09:17;10.30;;;1.20;;
41705;SDS011;27385;51.096;17.190;2022-07-29T04:11:48;10.20;;;1.60;;
41705;SDS011;27385;51.096;17.190;2022-07-29T04:14:21;5.50;;;1.30;;
41705;SDS011;27385;51.096;17.190;2022-07-29T04:16:53;10.10;;;1.60;;
41705;SDS011;27385;51.096;17.190;2022-07-29T04:19:24;8.50;;;1.50;;
41705;SDS011;27385;51.096;17.190;2022-07-29T04:21:56;8.00;;;1.30;;
41705;SDS011;27385;51.096;17.190;2022-07-29T04:24:28;7.20;;;1.20;;
41705;SDS011;27385;51.096;17.190;2022-07-29T04:27:00;5.50;;;1.30;;
41705;SDS011;27385;51.096;17.190;2022-07-29T04:29:31;8.60;;;1.10;;
41705;SDS011;27385;51.096;17.190;2022-07-29T04:32:03;12.10;;;1.50;;
41705;SDS011;27385;51.096;17.190;2022-07-29T04:34:36;10.70;;;1.40;;
41705;SDS011;27385;51.096;17.190;2022-07-29T04:37:09;5.50;;;1.20;;
41705;SDS011;27385;51.096;17.190;2022-07-29T04:39:41;7.90;;;1.40;;
41705;SDS011;27385;51.096;17.190;2022-07-29T04:42:12;8.70;;;1.60;;
41705;SDS011;27385;51.096;17.190;2022-07-29T04:44:44;6.60;;;1.30;;
41705;SDS011;27385;51.096;17.190;2022-07-29T04:47:16;9.70;;;1.70;;
41705;SDS011;27385;51.096;17.190;2022-07-29T04:49:47;14.30;;;2.10;;
41705;SDS011;27385;51.096;17.190;2022-07-29T04:52:19;9.70;;;1.70;;
41705;SDS011;27385;51.096;17.190;2022-07-29T04:54:51;11.90;;;2.10;;
41705;SDS011;27385;51.096;17.190;2022-07-29T04:57:23;10.30;;;1.50;;
41705;SDS011;27385;51.096;17.190;2022-07-29T04:59:55;10.70;;;1.40;;
41705;SDS011;27385;51.096;17.190;2022-07-29T05:02:27;8.50;;;1.10;;
41705;SDS011;27385;51.096;17.190;2022-07-29T05:04:58;9.60;;;1.30;;
41705;SDS011;27385;51.096;17.190;2022-07-29T05:07:29;7.10;;;1.20;;
41705;SDS011;27385;51.096;17.190;2022-07-29T05:10:01;5.60;;;1.30;;
41705;SDS011;27385;51.096;17.190;2022-07-29T05:12:33;10.00;;;1.40;;
41705;SDS011;27385;51.096;17.190;2022-07-29T05:15:06;5.50;;;1.10;;
41705;SDS011;27385;51.096;17.190;2022-07-29T05:17:38;8.10;;;1.30;;
41705;SDS011;27385;51.096;17.190;2022-07-29T05:20:10;8.30;;;1.10;;
41705;SDS011;27385;51.096;17.190;2022-07-29T05:22:42;9.10;;;1.20;;
41705;SDS011;27385;51.096;17.190;2022-07-29T05:25:13;7.30;;;1.10;;
41705;SDS011;27385;51.096;17.190;2022-07-29T05:27:45;6.60;;;1.00;;
41705;SDS011;27385;51.096;17.190;2022-07-29T05:30:17;8.70;;;1.10;;
41705;SDS011;27385;51.096;17.190;2022-07-29T05:32:48;7.30;;;1.10;;
41705;SDS011;27385;51.096;17.190;2022-07-29T05:35:21;6.80;;;1.10;;
41705;SDS011;27385;51.096;17.190;2022-07-29T05:37:52;5.30;;;1.30;;
41705;SDS011;27385;51.096;17.190;2022-07-29T05:40:24;8.30;;;1.10;;
41705;SDS011;27385;51.096;17.190;2022-07-29T05:42:56;5.00;;;1.00;;
41705;SDS011;27385;51.096;17.190;2022-07-29T05:45:27;8.60;;;1.40;;
41705;SDS011;27385;51.096;17.190;2022-07-29T05:47:59;3.60;;;0.80;;
41705;SDS011;27385;51.096;17.190;2022-07-29T05:50:31;7.40;;;1.00;;
41705;SDS011;27385;51.096;17.190;2022-07-29T05:53:02;5.10;;;1.00;;
41705;SDS011;27385;51.096;17.190;2022-07-29T05:55:34;5.20;;;0.90;;
41705;SDS011;27385;51.096;17.190;2022-07-29T05:58:05;7.50;;;1.00;;
41705;SDS011;27385;51.096;17.190;2022-07-29T06:00:37;7.70;;;1.10;;
41705;SDS011;27385;51.096;17.190;2022-07-29T06:03:09;3.40;;;0.90;;
41705;SDS011;27385;51.096;17.190;2022-07-29T06:05:41;5.40;;;0.90;;
41705;SDS011;27385;51.096;17.190;2022-07-29T06:08:12;9.50;;;1.00;;
41705;SDS011;27385;51.096;17.190;2022-07-29T06:10:44;6.00;;;0.90;;
41705;SDS011;27385;51.096;17.190;2022-07-29T06:13:17;4.90;;;0.80;;
41705;SDS011;27385;51.096;17.190;2022-07-29T06:15:48;5.70;;;0.80;;
41705;SDS011;27385;51.096;17.190;2022-07-29T06:18:20;9.10;;;1.10;;
41705;SDS011;27385;51.096;17.190;2022-07-29T06:20:55;4.10;;;0.80;;
41705;SDS011;27385;51.096;17.190;2022-07-29T06:23:26;7.00;;;0.80;;
41705;SDS011;27385;51.096;17.190;2022-07-29T06:25:58;6.10;;;0.90;;
41705;SDS011;27385;51.096;17.190;2022-07-29T06:28:29;6.80;;;0.80;;
41705;SDS011;27385;51.096;17.190;2022-07-29T06:31:02;9.00;;;0.80;;
41705;SDS011;27385;51.096;17.190;2022-07-29T06:33:34;3.90;;;0.80;;
41705;SDS011;27385;51.096;17.190;2022-07-29T06:36:06;5.40;;;0.80;;
41705;SDS011;27385;51.096;17.190;2022-07-29T06:38:38;7.00;;;1.00;;
41705;SDS011;27385;51.096;17.190;2022-07-29T06:41:09;12.60;;;1.20;;
41705;SDS011;27385;51.096;17.190;2022-07-29T06:43:44;3.80;;;0.70;;
41705;SDS011;27385;51.096;17.190;2022-07-29T06:46:17;4.70;;;0.70;;
41705;SDS011;27385;51.096;17.190;2022-07-29T06:48:49;5.00;;;0.70;;
41705;SDS011;27385;51.096;17.190;2022-07-29T06:51:21;7.50;;;1.00;;
41705;SDS011;27385;51.096;17.190;2022-07-29T06:53:53;5.00;;;0.60;;
41705;SDS011;27385;51.096;17.190;2022-07-29T06:56:25;6.60;;;0.70;;
41705;SDS011;27385;51.096;17.190;2022-07-29T06:58:57;5.20;;;0.80;;
41705;SDS011;27385;51.096;17.190;2022-07-29T07:01:28;6.80;;;0.60;;
41705;SDS011;27385;51.096;17.190;2022-07-29T07:04:00;3.60;;;0.60;;
41705;SDS011;27385;51.096;17.190;2022-07-29T07:06:32;3.90;;;0.70;;
41705;SDS011;27385;51.096;17.190;2022-07-29T07:09:04;5.00;;;0.60;;
41705;SDS011;27385;51.096;17.190;2022-07-29T07:11:35;6.70;;;0.70;;
41705;SDS011;27385;51.096;17.190;2022-07-29T07:14:07;7.40;;;0.60;;
41705;SDS011;27385;51.096;17.190;2022-07-29T07:16:38;3.30;;;0.60;;
41705;SDS011;27385;51.096;17.190;2022-07-29T07:19:10;6.90;;;0.80;;
41705;SDS011;27385;51.096;17.190;2022-07-29T07:21:41;4.50;;;0.90;;
41705;SDS011;27385;51.096;17.190;2022-07-29T07:24:12;10.80;;;1.00;;
41705;SDS011;27385;51.096;17.190;2022-07-29T07:26:44;5.90;;;0.70;;
41705;SDS011;27385;51.096;17.190;2022-07-29T07:29:16;5.50;;;0.60;;
41705;SDS011;27385;51.096;17.190;2022-07-29T07:31:47;7.50;;;0.70;;
41705;SDS011;27385;51.096;17.190;2022-07-29T07:34:19;6.20;;;0.80;;
41705;SDS011;27385;51.096;17.190;2022-07-29T07:36:51;3.20;;;0.60;;
41705;SDS011;27385;51.096;17.190;2022-07-29T07:39:22;5.10;;;0.60;;
41705;SDS011;27385;51.096;17.190;2022-07-29T07:41:55;7.90;;;0.70;;
41705;SDS011;27385;51.096;17.190;2022-07-29T07:44:28;3.90;;;0.70;;
41705;SDS011;27385;51.096;17.190;2022-07-29T07:47:04;3.60;;;0.60;;
41705;SDS011;27385;51.096;17.190;2022-07-29T07:49:37;5.50;;;0.50;;
41705;SDS011;27385;51.096;17.190;2022-07-29T07:52:09;6.30;;;0.80;;
41705;SDS011;27385;51.096;17.190;2022-07-29T07:54:41;4.80;;;0.60;;
41705;SDS011;27385;51.096;17.190;2022-07-29T07:57:13;8.60;;;0.90;;
41705;SDS011;27385;51.096;17.190;2022-07-29T07:59:45;4.90;;;0.90;;
41705;SDS011;27385;51.096;17.190;2022-07-29T08:02:17;5.50;;;0.80;;
41705;SDS011;27385;51.096;17.190;2022-07-29T08:04:52;4.40;;;0.70;;
41705;SDS011;27385;51.096;17.190;2022-07-29T08:07:23;3.50;;;0.70;;
41705;SDS011;27385;51.096;17.190;2022-07-29T08:09:55;5.20;;;0.90;;
41705;SDS011;27385;51.096;17.190;2022-07-29T08:12:26;4.60;;;0.70;;
41705;SDS011;27385;51.096;17.190;2022-07-29T08:14:58;5.70;;;0.70;;
41705;SDS011;27385;51.096;17.190;2022-07-29T08:17:30;3.40;;;0.60;;
41705;SDS011;27385;51.096;17.190;2022-07-29T08:20:02;5.40;;;0.80;;
41705;SDS011;27385;51.096;17.190;2022-07-29T08:22:34;10.80;;;0.80;;
41705;SDS011;27385;51.096;17.190;2022-07-29T08:25:07;6.00;;;0.80;;
41705;SDS011;27385;51.096;17.190;2022-07-29T08:27:39;8.30;;;0.80;;
41705;SDS011;27385;51.096;17.190;2022-07-29T08:30:11;7.40;;;0.70;;
41705;SDS011;27385;51.096;17.190;2022-07-29T08:32:43;9.60;;;0.70;;
41705;SDS011;27385;51.096;17.190;2022-07-29T08:35:16;5.40;;;0.70;;
41705;SDS011;27385;51.096;17.190;2022-07-29T08:37:48;5.90;;;0.80;;
41705;SDS011;27385;51.096;17.190;2022-07-29T08:40:20;5.80;;;0.70;;
41705;SDS011;27385;51.096;17.190;2022-07-29T08:42:52;5.20;;;0.80;;
41705;SDS011;27385;51.096;17.190;2022-07-29T08:45:24;2.90;;;0.70;;
41705;SDS011;27385;51.096;17.190;2022-07-29T08:47:57;5.50;;;0.70;;
41705;SDS011;27385;51.096;17.190;2022-07-29T08:50:29;7.10;;;1.00;;
41705;SDS011;27385;51.096;17.190;2022-07-29T08:53:04;8.40;;;0.80;;
41705;SDS011;27385;51.096;17.190;2022-07-29T08:55:36;4.50;;;0.80;;
41705;SDS011;27385;51.096;17.190;2022-07-29T08:58:12;6.00;;;1.10;;
41705;SDS011;27385;51.096;17.190;2022-07-29T09:00:44;5.30;;;1.50;;
41705;SDS011;27385;51.096;17.190;2022-07-29T09:03:19;6.30;;;0.80;;
41705;SDS011;27385;51.096;17.190;2022-07-29T09:05:52;5.10;;;0.60;;
41705;SDS011;27385;51.096;17.190;2022-07-29T09:08:24;4.80;;;1.10;;
41705;SDS011;27385;51.096;17.190;2022-07-29T09:10:56;4.60;;;0.60;;
41705;SDS011;27385;51.096;17.190;2022-07-29T09:13:30;3.20;;;0.60;;
41705;SDS011;27385;51.096;17.190;2022-07-29T09:16:01;6.00;;;1.20;;
41705;SDS011;27385;51.096;17.190;2022-07-29T09:18:37;5.80;;;0.90;;
41705;SDS011;27385;51.096;17.190;2022-07-29T09:21:11;4.60;;;0.70;;
41705;SDS011;27385;51.096;17.190;2022-07-29T09:24:03;5.20;;;0.80;;
41705;SDS011;27385;51.096;17.190;2022-07-29T09:26:36;5.80;;;0.70;;
41705;SDS011;27385;51.096;17.190;2022-07-29T09:29:10;5.30;;;0.60;;
41705;SDS011;27385;51.096;17.190;2022-07-29T09:31:43;5.00;;;0.60;;
41705;SDS011;27385;51.096;17.190;2022-07-29T09:34:16;2.40;;;0.90;;
41705;SDS011;27385;51.096;17.190;2022-07-29T09:36:51;2.40;;;0.60;;
41705;SDS011;27385;51.096;17.190;2022-07-29T09:39:30;4.50;;;0.70;;
41705;SDS011;27385;51.096;17.190;2022-07-29T09:42:04;3.70;;;0.80;;
41705;SDS011;27385;51.096;17.190;2022-07-29T09:44:44;6.80;;;0.70;;
41705;SDS011;27385;51.096;17.190;2022-07-29T09:47:17;2.70;;;0.80;;
41705;SDS011;27385;51.096;17.190;2022-07-29T09:49:54;7.70;;;1.10;;
41705;SDS011;27385;51.096;17.190;2022-07-29T09:52:27;4.80;;;1.00;;
41705;SDS011;27385;51.096;17.190;2022-07-29T09:55:05;9.40;;;1.10;;
41705;SDS011;27385;51.096;17.190;2022-07-29T09:57:38;12.50;;;1.20;;
41705;SDS011;27385;51.096;17.190;2022-07-29T10:00:11;6.70;;;0.90;;
41705;SDS011;27385;51.096;17.190;2022-07-29T10:02:45;3.40;;;0.60;;
41705;SDS011;27385;51.096;17.190;2022-07-29T10:05:19;5.00;;;0.90;;
41705;SDS011;27385;51.096;17.190;2022-07-29T10:07:52;9.80;;;0.90;;
41705;SDS011;27385;51.096;17.190;2022-07-29T10:10:25;3.80;;;0.60;;
41705;SDS011;27385;51.096;17.190;2022-07-29T10:12:59;4.20;;;0.70;;
41705;SDS011;27385;51.096;17.190;2022-07-29T10:15:34;4.30;;;0.70;;
41705;SDS011;27385;51.096;17.190;2022-07-29T10:18:09;5.30;;;0.90;;
41705;SDS011;27385;51.096;17.190;2022-07-29T10:20:41;5.50;;;0.80;;
41705;SDS011;27385;51.096;17.190;2022-07-29T10:23:13;8.40;;;0.90;;
41705;SDS011;27385;51.096;17.190;2022-07-29T10:25:44;7.00;;;1.00;;
41705;SDS011;27385;51.096;17.190;2022-07-29T10:28:16;3.60;;;0.70;;
41705;SDS011;27385;51.096;17.190;2022-07-29T10:30:48;3.10;;;0.70;;
41705;SDS011;27385;51.096;17.190;2022-07-29T10:33:25;5.50;;;0.90;;
41705;SDS011;27385;51.096;17.190;2022-07-29T10:36:15;9.60;;;1.50;;
41705;SDS011;27385;51.096;17.190;2022-07-29T10:38:58;5.10;;;0.70;;
41705;SDS011;27385;51.096;17.190;2022-07-29T10:44:35;3.70;;;0.90;;
41705;SDS011;27385;51.096;17.190;2022-07-29T10:47:08;8.20;;;0.90;;
41705;SDS011;27385;51.096;17.190;2022-07-29T10:53:48;4.30;;;0.90;;
41705;SDS011;27385;51.096;17.190;2022-07-29T10:56:40;8.80;;;0.90;;
41705;SDS011;27385;51.096;17.190;2022-07-29T10:59:28;9.90;;;1.00;;
41705;SDS011;27385;51.096;17.190;2022-07-29T11:05:30;3.90;;;0.90;;
41705;SDS011;27385;51.096;17.190;2022-07-29T11:08:43;6.80;;;0.90;;
41705;SDS011;27385;51.096;17.190;2022-07-29T11:11:35;8.80;;;2.00;;
41705;SDS011;27385;51.096;17.190;2022-07-29T11:14:09;7.30;;;1.00;;
41705;SDS011;27385;51.096;17.190;2022-07-29T11:17:00;7.50;;;0.80;;
41705;SDS011;27385;51.096;17.190;2022-07-29T11:19:35;5.20;;;0.90;;
41705;SDS011;27385;51.096;17.190;2022-07-29T11:22:10;8.70;;;0.70;;
41705;SDS011;27385;51.096;17.190;2022-07-29T11:25:13;4.00;;;0.80;;
41705;SDS011;27385;51.096;17.190;2022-07-29T11:27:46;8.20;;;1.10;;
41705;SDS011;27385;51.096;17.190;2022-07-29T11:30:18;2.70;;;0.80;;
41705;SDS011;27385;51.096;17.190;2022-07-29T11:32:50;5.10;;;0.80;;
41705;SDS011;27385;51.096;17.190;2022-07-29T11:35:22;3.20;;;0.60;;
41705;SDS011;27385;51.096;17.190;2022-07-29T11:44:03;7.40;;;1.00;;
41705;SDS011;27385;51.096;17.190;2022-07-29T11:46:45;5.60;;;0.90;;
41705;SDS011;27385;51.096;17.190;2022-07-29T11:49:20;6.60;;;0.80;;
41705;SDS011;27385;51.096;17.190;2022-07-29T11:51:55;4.50;;;0.80;;
41705;SDS011;27385;51.096;17.190;2022-07-29T11:54:30;7.10;;;1.00;;
41705;SDS011;27385;51.096;17.190;2022-07-29T11:57:02;8.50;;;1.00;;
41705;SDS011;27385;51.096;17.190;2022-07-29T11:59:40;8.30;;;1.10;;
41705;SDS011;27385;51.096;17.190;2022-07-29T12:02:13;5.90;;;1.00;;
41705;SDS011;27385;51.096;17.190;2022-07-29T12:04:51;7.20;;;0.90;;
41705;SDS011;27385;51.096;17.190;2022-07-29T12:07:27;3.70;;;0.80;;
41705;SDS011;27385;51.096;17.190;2022-07-29T12:09:59;6.70;;;0.90;;
41705;SDS011;27385;51.096;17.190;2022-07-29T12:12:32;7.60;;;0.90;;
41705;SDS011;27385;51.096;17.190;2022-07-29T12:15:17;7.70;;;0.70;;
41705;SDS011;27385;51.096;17.190;2022-07-29T12:17:52;9.10;;;1.00;;
41705;SDS011;27385;51.096;17.190;2022-07-29T12:20:24;5.70;;;1.10;;
41705;SDS011;27385;51.096;17.190;2022-07-29T12:22:57;12.30;;;1.30;;
41705;SDS011;27385;51.096;17.190;2022-07-29T12:25:34;5.90;;;1.00;;
41705;SDS011;27385;51.096;17.190;2022-07-29T12:28:07;5.40;;;1.10;;
41705;SDS011;27385;51.096;17.190;2022-07-29T12:30:41;4.60;;;1.00;;
41705;SDS011;27385;51.096;17.190;2022-07-29T12:33:18;3.70;;;0.80;;
41705;SDS011;27385;51.096;17.190;2022-07-29T12:35:52;7.60;;;1.00;;
41705;SDS011;27385;51.096;17.190;2022-07-29T12:38:26;6.40;;;0.90;;
41705;SDS011;27385;51.096;17.190;2022-07-29T12:40:58;4.60;;;1.00;;
41705;SDS011;27385;51.096;17.190;2022-07-29T12:43:29;8.60;;;1.20;;
41705;SDS011;27385;51.096;17.190;2022-07-29T12:46:12;5.50;;;1.00;;
41705;SDS011;27385;51.096;17.190;2022-07-29T12:48:44;7.30;;;0.90;;
41705;SDS011;27385;51.096;17.190;2022-07-29T12:51:29;6.80;;;0.90;;
41705;SDS011;27385;51.096;17.190;2022-07-29T12:56:35;4.00;;;0.90;;
41705;SDS011;27385;51.096;17.190;2022-07-29T12:59:14;6.90;;;1.10;;
41705;SDS011;27385;51.096;17.190;2022-07-29T13:01:48;9.30;;;0.90;;
41705;SDS011;27385;51.096;17.190;2022-07-29T13:04:28;9.00;;;1.40;;
41705;SDS011;27385;51.096;17.190;2022-07-29T13:07:02;7.10;;;1.00;;
41705;SDS011;27385;51.096;17.190;2022-07-29T13:09:38;5.30;;;0.90;;
41705;SDS011;27385;51.096;17.190;2022-07-29T13:12:11;12.10;;;1.90;;
41705;SDS011;27385;51.096;17.190;2022-07-29T13:14:44;9.10;;;1.10;;
41705;SDS011;27385;51.096;17.190;2022-07-29T13:17:17;8.40;;;1.30;;
41705;SDS011;27385;51.096;17.190;2022-07-29T13:19:51;6.10;;;0.90;;
41705;SDS011;27385;51.096;17.190;2022-07-29T13:22:34;4.90;;;1.00;;
41705;SDS011;27385;51.096;17.190;2022-07-29T13:25:06;5.90;;;1.40;;
41705;SDS011;27385;51.096;17.190;2022-07-29T13:27:39;5.50;;;0.90;;
41705;SDS011;27385;51.096;17.190;2022-07-29T13:30:13;7.40;;;1.10;;
41705;SDS011;27385;51.096;17.190;2022-07-29T13:32:44;9.00;;;1.30;;
41705;SDS011;27385;51.096;17.190;2022-07-29T13:35:16;6.20;;;1.10;;
41705;SDS011;27385;51.096;17.190;2022-07-29T13:37:48;6.10;;;1.60;;
41705;SDS011;27385;51.096;17.190;2022-07-29T13:40:20;9.10;;;1.70;;
41705;SDS011;27385;51.096;17.190;2022-07-29T13:42:51;6.00;;;1.40;;
41705;SDS011;27385;51.096;17.190;2022-07-29T13:45:24;7.10;;;1.30;;
41705;SDS011;27385;51.096;17.190;2022-07-29T13:47:55;5.00;;;1.20;;
41705;SDS011;27385;51.096;17.190;2022-07-29T13:50:27;7.50;;;1.30;;
41705;SDS011;27385;51.096;17.190;2022-07-29T13:52:59;6.70;;;1.20;;
41705;SDS011;27385;51.096;17.190;2022-07-29T13:55:30;5.20;;;1.10;;
41705;SDS011;27385;51.096;17.190;2022-07-29T13:58:02;5.00;;;1.00;;
41705;SDS011;27385;51.096;17.190;2022-07-29T14:00:35;4.80;;;1.00;;
41705;SDS011;27385;51.096;17.190;2022-07-29T14:03:07;6.70;;;1.10;;
41705;SDS011;27385;51.096;17.190;2022-07-29T14:05:40;9.40;;;1.30;;
41705;SDS011;27385;51.096;17.190;2022-07-29T14:08:12;5.30;;;1.40;;
41705;SDS011;27385;51.096;17.190;2022-07-29T14:10:44;5.70;;;1.40;;
41705;SDS011;27385;51.096;17.190;2022-07-29T14:13:16;9.20;;;1.60;;
41705;SDS011;27385;51.096;17.190;2022-07-29T14:15:49;4.80;;;1.20;;
41705;SDS011;27385;51.096;17.190;2022-07-29T14:18:21;3.80;;;1.20;;
41705;SDS011;27385;51.096;17.190;2022-07-29T14:20:53;3.90;;;1.10;;
41705;SDS011;27385;51.096;17.190;2022-07-29T14:23:25;6.00;;;1.10;;
41705;SDS011;27385;51.096;17.190;2022-07-29T14:25:57;4.60;;;1.40;;
41705;SDS011;27385;51.096;17.190;2022-07-29T14:28:28;8.30;;;1.30;;
41705;SDS011;27385;51.096;17.190;2022-07-29T14:31:01;5.60;;;0.80;;
41705;SDS011;27385;51.096;17.190;2022-07-29T14:33:33;3.50;;;0.90;;
41705;SDS011;27385;51.096;17.190;2022-07-29T14:36:06;9.50;;;1.00;;
41705;SDS011;27385;51.096;17.190;2022-07-29T14:38:39;8.60;;;1.40;;
41705;SDS011;27385;51.096;17.190;2022-07-29T14:41:11;6.40;;;1.00;;
41705;SDS011;27385;51.096;17.190;2022-07-29T14:43:43;6.80;;;1.10;;
41705;SDS011;27385;51.096;17.190;2022-07-29T14:46:15;8.40;;;1.20;;
41705;SDS011;27385;51.096;17.190;2022-07-29T14:48:48;8.10;;;1.10;;
41705;SDS011;27385;51.096;17.190;2022-07-29T14:51:20;5.60;;;1.10;;
41705;SDS011;27385;51.096;17.190;2022-07-29T14:53:53;8.00;;;1.50;;
41705;SDS011;27385;51.096;17.190;2022-07-29T14:56:26;5.20;;;1.00;;
41705;SDS011;27385;51.096;17.190;2022-07-29T14:58:59;7.40;;;1.20;;
41705;SDS011;27385;51.096;17.190;2022-07-29T15:01:31;4.70;;;1.10;;
41705;SDS011;27385;51.096;17.190;2022-07-29T15:04:04;8.10;;;1.20;;
41705;SDS011;27385;51.096;17.190;2022-07-29T15:06:38;5.80;;;1.10;;
41705;SDS011;27385;51.096;17.190;2022-07-29T15:09:11;4.70;;;1.20;;
41705;SDS011;27385;51.096;17.190;2022-07-29T15:11:44;7.40;;;1.10;;
41705;SDS011;27385;51.096;17.190;2022-07-29T15:14:16;5.30;;;1.20;;
41705;SDS011;27385;51.096;17.190;2022-07-29T15:16:48;9.10;;;1.70;;
41705;SDS011;27385;51.096;17.190;2022-07-29T15:19:20;3.60;;;1.10;;
41705;SDS011;27385;51.096;17.190;2022-07-29T15:21:53;10.00;;;2.00;;
41705;SDS011;27385;51.096;17.190;2022-07-29T15:24:25;5.30;;;1.30;;
41705;SDS011;27385;51.096;17.190;2022-07-29T15:26:58;6.80;;;1.20;;
41705;SDS011;27385;51.096;17.190;2022-07-29T15:29:31;5.80;;;1.10;;
41705;SDS011;27385;51.096;17.190;2022-07-29T15:32:05;5.80;;;0.90;;
41705;SDS011;27385;51.096;17.190;2022-07-29T15:34:38;6.90;;;1.20;;